sensor_id;sensor_type;location;lat;lon;timestamp;pressure;altitude;pressure_sealevel;temperature;humidity
50057;BME280;36875;49.468;11.200;2022-08-03T00:01:32;98042.88;;;21.35;53.15
50057;BME280;36875;49.468;11.200;2022-08-03T00:03:57;98039.03;;;21.36;52.98
50057;BME280;36875;49.468;11.200;2022-08-03T00:06:23;98042.38;;;21.33;52.91
50057;BME280;36875;49.468;11.200;2022-08-03T00:08:48;98045.44;;;21.31;53.16
50057;BME280;36875;49.468;11.200;2022-08-03T00:11:14;98033.03;;;21.25;52.90
50057;BME280;36875;49.468;11.200;2022-08-03T00:13:40;98035.28;;;21.23;53.19
50057;BME280;36875;49.468;11.200;2022-08-03T00:16:07;98051.38;;;21.25;53.14
50057;BME280;36875;49.468;11.200;2022-08-03T00:18:33;98033.28;;;21.15;53.29
50057;BME280;36875;49.468;11.200;2022-08-03T00:20:58;98048.47;;;21.21;53.02
50057;BME280;36875;49.468;11.200;2022-08-03T00:23:24;98041.69;;;21.18;53.19
50057;BME280;36875;49.468;11.200;2022-08-03T00:25:50;98044.72;;;21.17;53.29
50057;BME280;36875;49.468;11.200;2022-08-03T00:28:15;98046.97;;;21.15;53.28
50057;BME280;36875;49.468;11.200;2022-08-03T00:30:41;98054.06;;;21.16;53.15
50057;BME280;36875;49.468;11.200;2022-08-03T00:33:08;98048.91;;;21.14;53.22
50057;BME280;36875;49.468;11.200;2022-08-03T00:35:35;98042.59;;;21.05;53.36
50057;BME280;36875;49.468;11.200;2022-08-03T00:38:00;98045.34;;;21.05;53.39
50057;BME280;36875;49.468;11.200;2022-08-03T00:40:26;98044.84;;;21.03;53.56
50057;BME280;36875;49.468;11.200;2022-08-03T00:42:54;98036.47;;;20.99;53.52
50057;BME280;36875;49.468;11.200;2022-08-03T00:45:22;98039.69;;;21.02;53.28
50057;BME280;36875;49.468;11.200;2022-08-03T00:47:48;98052.25;;;21.03;53.41
50057;BME280;36875;49.468;11.200;2022-08-03T00:50:16;98032.22;;;20.93;53.43
50057;BME280;36875;49.468;11.200;2022-08-03T00:52:42;98047.41;;;20.99;53.62
50057;BME280;36875;49.468;11.200;2022-08-03T00:55:08;98046.91;;;20.97;53.63
50057;BME280;36875;49.468;11.200;2022-08-03T00:57:34;98059.16;;;21.00;53.56
50057;BME280;36875;49.468;11.200;2022-08-03T01:00:00;98054.63;;;20.95;53.41
50057;BME280;36875;49.468;11.200;2022-08-03T01:02:27;98055.91;;;20.98;53.56
50057;BME280;36875;49.468;11.200;2022-08-03T01:04:53;98054.63;;;20.95;53.44
50057;BME280;36875;49.468;11.200;2022-08-03T01:07:27;98050.25;;;20.94;53.61
50057;BME280;36875;49.468;11.200;2022-08-03T01:10:01;98054.44;;;20.92;53.68
50057;BME280;36875;49.468;11.200;2022-08-03T01:12:31;98038.09;;;20.78;53.70
50057;BME280;36875;49.468;11.200;2022-08-03T01:15:04;98043.94;;;20.85;53.54
50057;BME280;36875;49.468;11.200;2022-08-03T01:17:37;98053.25;;;20.84;53.78
50057;BME280;36875;49.468;11.200;2022-08-03T01:20:07;98036.63;;;20.72;53.88
50057;BME280;36875;49.468;11.200;2022-08-03T01:22:59;98053.59;;;20.83;53.80
50057;BME280;36875;49.468;11.200;2022-08-03T01:25:37;98049.53;;;20.80;53.97
50057;BME280;36875;49.468;11.200;2022-08-03T01:28:19;98049.53;;;20.80;53.67
50057;BME280;36875;49.468;11.200;2022-08-03T01:30:49;98055.00;;;20.80;53.69
50057;BME280;36875;49.468;11.200;2022-08-03T01:33:21;98035.66;;;20.68;53.95
50057;BME280;36875;49.468;11.200;2022-08-03T01:35:53;98046.94;;;20.75;53.98
50057;BME280;36875;49.468;11.200;2022-08-03T01:38:25;98039.38;;;20.72;53.65
50057;BME280;36875;49.468;11.200;2022-08-03T01:40:52;98036.31;;;20.73;53.66
50057;BME280;36875;49.468;11.200;2022-08-03T01:43:21;98031.97;;;20.72;54.05
50057;BME280;36875;49.468;11.200;2022-08-03T01:45:51;98030.69;;;20.70;54.06
50057;BME280;36875;49.468;11.200;2022-08-03T01:48:17;98027.44;;;20.68;53.78
50057;BME280;36875;49.468;11.200;2022-08-03T01:50:44;98015.59;;;20.58;53.86
50057;BME280;36875;49.468;11.200;2022-08-03T01:53:13;98034.03;;;20.67;53.96
50057;BME280;36875;49.468;11.200;2022-08-03T01:55:40;98025.63;;;20.63;53.83
50057;BME280;36875;49.468;11.200;2022-08-03T01:58:07;98024.44;;;20.55;54.01
50057;BME280;36875;49.468;11.200;2022-08-03T02:00:34;98025.53;;;20.54;54.03
50057;BME280;36875;49.468;11.200;2022-08-03T02:03:03;98029.81;;;20.60;54.28
50057;BME280;36875;49.468;11.200;2022-08-03T02:05:31;98029.25;;;20.58;53.95
50057;BME280;36875;49.468;11.200;2022-08-03T02:07:57;98028.16;;;20.59;53.93
50057;BME280;36875;49.468;11.200;2022-08-03T02:10:25;98037.31;;;20.55;54.15
50057;BME280;36875;49.468;11.200;2022-08-03T02:12:52;98032.94;;;20.54;54.32
50057;BME280;36875;49.468;11.200;2022-08-03T02:15:19;98036.59;;;20.49;54.44
50057;BME280;36875;49.468;11.200;2022-08-03T02:17:46;98035.50;;;20.50;54.47
50057;BME280;36875;49.468;11.200;2022-08-03T02:20:14;98030.03;;;20.50;54.50
50057;BME280;36875;49.468;11.200;2022-08-03T02:22:41;98030.53;;;20.52;54.39
50057;BME280;36875;49.468;11.200;2022-08-03T02:25:08;98028.09;;;20.51;54.29
50057;BME280;36875;49.468;11.200;2022-08-03T02:27:36;98009.34;;;20.35;54.32
50057;BME280;36875;49.468;11.200;2022-08-03T02:30:05;98038.66;;;20.44;54.27
50057;BME280;36875;49.468;11.200;2022-08-03T02:32:35;98032.19;;;20.39;54.14
50057;BME280;36875;49.468;11.200;2022-08-03T02:35:05;98036.56;;;20.40;54.29
50057;BME280;36875;49.468;11.200;2022-08-03T02:37:38;98036.25;;;20.42;54.24
50057;BME280;36875;49.468;11.200;2022-08-03T02:40:07;98019.59;;;20.30;53.91
50057;BME280;36875;49.468;11.200;2022-08-03T02:42:35;98014.25;;;20.25;54.15
50057;BME280;36875;49.468;11.200;2022-08-03T02:45:05;98016.06;;;20.29;54.05
50057;BME280;36875;49.468;11.200;2022-08-03T02:47:34;98013.94;;;20.26;54.00
50057;BME280;36875;49.468;11.200;2022-08-03T02:50:01;98027.34;;;20.36;53.90
50057;BME280;36875;49.468;11.200;2022-08-03T02:52:28;98030.91;;;20.37;53.91
50057;BME280;36875;49.468;11.200;2022-08-03T02:54:59;98020.09;;;20.32;53.76
50057;BME280;36875;49.468;11.200;2022-08-03T02:57:27;98025.56;;;20.32;53.72
50057;BME280;36875;49.468;11.200;2022-08-03T02:59:55;98020.09;;;20.32;53.50
50057;BME280;36875;49.468;11.200;2022-08-03T03:02:22;98021.84;;;20.28;53.86
50057;BME280;36875;49.468;11.200;2022-08-03T03:04:50;98022.34;;;20.30;53.82
50057;BME280;36875;49.468;11.200;2022-08-03T03:07:17;98023.25;;;20.25;54.02
50057;BME280;36875;49.468;11.200;2022-08-03T03:09:43;98011.94;;;20.18;53.79
50057;BME280;36875;49.468;11.200;2022-08-03T03:12:12;98023.13;;;20.30;53.58
50057;BME280;36875;49.468;11.200;2022-08-03T03:14:38;98027.59;;;20.26;53.64
50057;BME280;36875;49.468;11.200;2022-08-03T03:17:06;98030.94;;;20.23;53.75
50057;BME280;36875;49.468;11.200;2022-08-03T03:19:32;98022.88;;;20.18;53.90
50057;BME280;36875;49.468;11.200;2022-08-03T03:22:00;98027.66;;;20.12;54.22
50057;BME280;36875;49.468;11.200;2022-08-03T03:24:27;98031.50;;;20.11;53.75
50057;BME280;36875;49.468;11.200;2022-08-03T03:26:54;98030.38;;;20.12;54.15
50057;BME280;36875;49.468;11.200;2022-08-03T03:29:21;98035.84;;;20.12;54.10
50057;BME280;36875;49.468;11.200;2022-08-03T03:31:47;98040.00;;;20.10;54.12
50057;BME280;36875;49.468;11.200;2022-08-03T03:34:14;98038.91;;;20.11;54.13
50057;BME280;36875;49.468;11.200;2022-08-03T03:36:40;98033.38;;;20.02;53.99
50057;BME280;36875;49.468;11.200;2022-08-03T03:39:05;98038.72;;;20.07;54.03
50057;BME280;36875;49.468;11.200;2022-08-03T03:41:31;98034.97;;;20.03;54.31
50057;BME280;36875;49.468;11.200;2022-08-03T03:43:57;98024.19;;;19.98;54.24
50057;BME280;36875;49.468;11.200;2022-08-03T03:46:24;98039.50;;;20.08;54.27
50057;BME280;36875;49.468;11.200;2022-08-03T03:48:50;98040.91;;;20.05;54.16
50057;BME280;36875;49.468;11.200;2022-08-03T03:51:16;98021.06;;;19.91;54.01
50057;BME280;36875;49.468;11.200;2022-08-03T03:53:54;98039.13;;;20.00;54.21
50057;BME280;36875;49.468;11.200;2022-08-03T03:56:20;98021.97;;;19.86;54.45
50057;BME280;36875;49.468;11.200;2022-08-03T03:58:45;98038.94;;;19.97;54.38
50057;BME280;36875;49.468;11.200;2022-08-03T04:01:11;98022.34;;;19.93;54.28
50057;BME280;36875;49.468;11.200;2022-08-03T04:03:38;98038.34;;;20.00;54.18
50057;BME280;36875;49.468;11.200;2022-08-03T04:06:04;98037.31;;;19.96;54.10
50057;BME280;36875;49.468;11.200;2022-08-03T04:08:48;98038.75;;;19.93;54.03
50057;BME280;36875;49.468;11.200;2022-08-03T04:11:46;98042.28;;;19.94;54.20
50057;BME280;36875;49.468;11.200;2022-08-03T04:14:15;98032.97;;;19.95;53.78
50057;BME280;36875;49.468;11.200;2022-08-03T04:16:45;98048.75;;;19.98;54.00
50057;BME280;36875;49.468;11.200;2022-08-03T04:19:16;98046.63;;;19.95;54.32
50057;BME280;36875;49.468;11.200;2022-08-03T04:21:43;98045.84;;;19.94;54.34
50057;BME280;36875;49.468;11.200;2022-08-03T04:24:12;98039.16;;;19.87;54.19
50057;BME280;36875;49.468;11.200;2022-08-03T04:26:40;98041.47;;;19.93;54.22
50057;BME280;36875;49.468;11.200;2022-08-03T04:29:08;98049.47;;;19.90;54.25
50057;BME280;36875;49.468;11.200;2022-08-03T04:31:35;98042.38;;;19.89;54.29
50057;BME280;36875;49.468;11.200;2022-08-03T04:34:03;98056.03;;;19.89;54.24
50057;BME280;36875;49.468;11.200;2022-08-03T04:36:32;98056.03;;;19.89;54.32
50057;BME280;36875;49.468;11.200;2022-08-03T04:39:03;98042.22;;;19.85;54.32
50057;BME280;36875;49.468;11.200;2022-08-03T04:41:30;98053.00;;;19.90;54.54
50057;BME280;36875;49.468;11.200;2022-08-03T04:43:57;98058.78;;;19.89;54.51
50057;BME280;36875;49.468;11.200;2022-08-03T04:46:26;98062.22;;;19.94;54.46
50057;BME280;36875;49.468;11.200;2022-08-03T04:48:53;98049.78;;;19.88;54.12
50057;BME280;36875;49.468;11.200;2022-08-03T04:51:19;98063.63;;;19.92;54.49
50057;BME280;36875;49.468;11.200;2022-08-03T04:53:46;98062.53;;;19.93;54.54
50057;BME280;36875;49.468;11.200;2022-08-03T04:56:12;98060.59;;;19.93;54.24
50057;BME280;36875;49.468;11.200;2022-08-03T04:58:38;98056.03;;;19.89;54.39
50057;BME280;36875;49.468;11.200;2022-08-03T05:01:03;98059.78;;;19.93;54.46
50057;BME280;36875;49.468;11.200;2022-08-03T05:03:29;98060.69;;;19.88;54.32
50057;BME280;36875;49.468;11.200;2022-08-03T05:05:56;98067.88;;;19.98;54.69
50057;BME280;36875;49.468;11.200;2022-08-03T05:08:21;98060.00;;;19.96;54.73
50057;BME280;36875;49.468;11.200;2022-08-03T05:10:48;98060.00;;;19.96;54.97
50057;BME280;36875;49.468;11.200;2022-08-03T05:13:14;98036.13;;;19.88;54.91
50057;BME280;36875;49.468;11.200;2022-08-03T05:15:40;98049.88;;;19.97;54.92
50057;BME280;36875;49.468;11.200;2022-08-03T05:18:06;98068.25;;;20.05;54.89
50057;BME280;36875;49.468;11.200;2022-08-03T05:20:32;98072.31;;;20.08;55.20
50057;BME280;36875;49.468;11.200;2022-08-03T05:22:57;98073.09;;;20.08;54.93
50057;BME280;36875;49.468;11.200;2022-08-03T05:25:25;98073.00;;;20.13;54.80
50057;BME280;36875;49.468;11.200;2022-08-03T05:27:52;98065.91;;;20.12;55.00
50057;BME280;36875;49.468;11.200;2022-08-03T05:30:18;98070.16;;;20.18;55.07
50057;BME280;36875;49.468;11.200;2022-08-03T05:32:44;98073.88;;;20.22;54.87
50057;BME280;36875;49.468;11.200;2022-08-03T05:35:10;98072.63;;;20.29;54.75
50057;BME280;36875;49.468;11.200;2022-08-03T05:37:35;98078.47;;;20.36;54.97
50057;BME280;36875;49.468;11.200;2022-08-03T05:40:01;98077.38;;;20.37;55.05
50057;BME280;36875;49.468;11.200;2022-08-03T05:42:27;98080.16;;;20.46;54.59
50057;BME280;36875;49.468;11.200;2022-08-03T05:44:54;98079.22;;;20.50;55.05
50057;BME280;36875;49.468;11.200;2022-08-03T05:47:19;98073.16;;;20.53;54.76
50057;BME280;36875;49.468;11.200;2022-08-03T05:49:45;98076.38;;;20.55;54.97
50057;BME280;36875;49.468;11.200;2022-08-03T05:52:11;98082.84;;;20.59;54.92
50057;BME280;36875;49.468;11.200;2022-08-03T05:54:36;98080.03;;;20.65;55.14
50057;BME280;36875;49.468;11.200;2022-08-03T05:57:02;98084.03;;;20.67;54.67
50057;BME280;36875;49.468;11.200;2022-08-03T05:59:27;98082.28;;;20.71;54.72
50057;BME280;36875;49.468;11.200;2022-08-03T06:01:54;98075.09;;;20.75;55.18
50057;BME280;36875;49.468;11.200;2022-08-03T06:04:20;98080.44;;;20.80;55.15
50057;BME280;36875;49.468;11.200;2022-08-03T06:06:46;98079.31;;;20.82;55.34
50057;BME280;36875;49.468;11.200;2022-08-03T06:09:12;98081.13;;;20.86;55.20
50057;BME280;36875;49.468;11.200;2022-08-03T06:11:38;98072.28;;;20.89;55.17
50057;BME280;36875;49.468;11.200;2022-08-03T06:14:04;98072.78;;;20.91;54.83
50057;BME280;36875;49.468;11.200;2022-08-03T06:16:30;98064.72;;;20.86;55.02
50057;BME280;36875;49.468;11.200;2022-08-03T06:18:57;98077.00;;;20.97;55.01
50057;BME280;36875;49.468;11.200;2022-08-03T06:21:23;98081.84;;;21.01;55.32
50057;BME280;36875;49.468;11.200;2022-08-03T06:23:49;98075.38;;;20.96;55.60
50057;BME280;36875;49.468;11.200;2022-08-03T06:26:15;98083.03;;;21.08;55.33
50057;BME280;36875;49.468;11.200;2022-08-03T06:28:40;98079.16;;;21.09;55.53
50057;BME280;36875;49.468;11.200;2022-08-03T06:31:06;98080.00;;;21.18;55.25
50057;BME280;36875;49.468;11.200;2022-08-03T06:33:31;98077.75;;;21.21;54.97
50057;BME280;36875;49.468;11.200;2022-08-03T06:35:58;98080.66;;;21.24;54.64
50057;BME280;36875;49.468;11.200;2022-08-03T06:38:24;98076.69;;;21.30;54.53
50057;BME280;36875;49.468;11.200;2022-08-03T06:40:49;98070.06;;;21.31;54.49
50057;BME280;36875;49.468;11.200;2022-08-03T06:43:15;98077.00;;;21.37;53.92
50057;BME280;36875;49.468;11.200;2022-08-03T06:45:41;98072.38;;;21.38;54.06
50057;BME280;36875;49.468;11.200;2022-08-03T06:48:07;98067.50;;;21.35;54.27
50057;BME280;36875;49.468;11.200;2022-08-03T06:50:36;98072.06;;;21.40;54.42
50057;BME280;36875;49.468;11.200;2022-08-03T06:53:04;98064.78;;;21.35;54.56
50057;BME280;36875;49.468;11.200;2022-08-03T06:55:30;98074.44;;;21.32;54.40
50057;BME280;36875;49.468;11.200;2022-08-03T06:57:56;98077.19;;;21.32;54.52
50057;BME280;36875;49.468;11.200;2022-08-03T07:00:23;98079.91;;;21.32;54.55
50057;BME280;36875;49.468;11.200;2022-08-03T07:02:49;98084.25;;;21.33;54.39
50057;BME280;36875;49.468;11.200;2022-08-03T07:05:14;98077.66;;;21.34;54.12
50057;BME280;36875;49.468;11.200;2022-08-03T07:07:40;98084.25;;;21.33;54.47
50057;BME280;36875;49.468;11.200;2022-08-03T07:10:08;98081.50;;;21.33;54.46
50057;BME280;36875;49.468;11.200;2022-08-03T07:12:36;98082.00;;;21.35;54.60
50057;BME280;36875;49.468;11.200;2022-08-03T07:15:03;98080.41;;;21.34;54.51
50057;BME280;36875;49.468;11.200;2022-08-03T07:17:30;98082.00;;;21.35;54.87
50057;BME280;36875;49.468;11.200;2022-08-03T07:19:57;98082.81;;;21.36;54.58
50057;BME280;36875;49.468;11.200;2022-08-03T07:22:22;98077.78;;;21.29;54.65
50057;BME280;36875;49.468;11.200;2022-08-03T07:24:48;98069.91;;;21.28;54.75
50057;BME280;36875;49.468;11.200;2022-08-03T07:27:16;98073.78;;;21.35;54.63
50057;BME280;36875;49.468;11.200;2022-08-03T07:29:41;98063.00;;;21.30;54.64
50057;BME280;36875;49.468;11.200;2022-08-03T07:32:07;98074.28;;;21.37;54.65
50057;BME280;36875;49.468;11.200;2022-08-03T07:34:32;98071.22;;;21.39;54.49
50057;BME280;36875;49.468;11.200;2022-08-03T07:36:58;98067.69;;;21.38;54.50
50057;BME280;36875;49.468;11.200;2022-08-03T07:39:24;98073.66;;;21.41;54.59
50057;BME280;36875;49.468;11.200;2022-08-03T07:41:49;98055.91;;;21.29;54.25
50057;BME280;36875;49.468;11.200;2022-08-03T07:44:17;98071.41;;;21.43;54.34
50057;BME280;36875;49.468;11.200;2022-08-03T07:46:43;98068.16;;;21.41;54.46
50057;BME280;36875;49.468;11.200;2022-08-03T07:49:09;98077.91;;;21.47;54.33
50057;BME280;36875;49.468;11.200;2022-08-03T07:51:34;98065.34;;;21.46;54.64
50057;BME280;36875;49.468;11.200;2022-08-03T07:54:00;98066.31;;;21.50;55.05
50057;BME280;36875;49.468;11.200;2022-08-03T07:56:26;98066.34;;;21.59;55.89
50057;BME280;36875;49.468;11.200;2022-08-03T07:58:52;98068.09;;;21.63;55.97
50057;BME280;36875;49.468;11.200;2022-08-03T08:01:20;98064.56;;;21.63;55.34
50057;BME280;36875;49.468;11.200;2022-08-03T08:03:46;98060.72;;;21.64;55.35
50057;BME280;36875;49.468;11.200;2022-08-03T08:06:12;98066.19;;;21.64;55.25
50057;BME280;36875;49.468;11.200;2022-08-03T08:08:38;98044.25;;;21.55;55.18
50057;BME280;36875;49.468;11.200;2022-08-03T08:11:04;98061.50;;;21.64;55.12
50057;BME280;36875;49.468;11.200;2022-08-03T08:13:30;98062.00;;;21.66;55.22
50057;BME280;36875;49.468;11.200;2022-08-03T08:15:56;98056.53;;;21.66;55.17
50057;BME280;36875;49.468;11.200;2022-08-03T08:18:23;98018.28;;;21.44;54.81
50057;BME280;36875;49.468;11.200;2022-08-03T08:20:49;98054.28;;;21.68;55.22
50057;BME280;36875;49.468;11.200;2022-08-03T08:23:15;98041.72;;;21.67;55.45
50057;BME280;36875;49.468;11.200;2022-08-03T08:25:47;98036.22;;;21.59;55.28
50057;BME280;36875;49.468;11.200;2022-08-03T08:28:13;98044.63;;;21.71;55.29
50057;BME280;36875;49.468;11.200;2022-08-03T08:30:38;98044.28;;;21.72;55.49
50057;BME280;36875;49.468;11.200;2022-08-03T08:33:04;98047.84;;;21.73;55.35
50057;BME280;36875;49.468;11.200;2022-08-03T08:35:31;98040.75;;;21.72;55.02
50057;BME280;36875;49.468;11.200;2022-08-03T08:37:58;98043.16;;;21.73;54.98
50057;BME280;36875;49.468;11.200;2022-08-03T08:40:25;98051.06;;;21.75;55.05
50057;BME280;36875;49.468;11.200;2022-08-03T08:42:51;98033.66;;;21.71;55.07
50057;BME280;36875;49.468;11.200;2022-08-03T08:45:17;98042.22;;;21.78;55.07
50057;BME280;36875;49.468;11.200;2022-08-03T08:47:46;98039.50;;;21.78;54.79
50057;BME280;36875;49.468;11.200;2022-08-03T08:50:12;98033.66;;;21.80;55.23
50057;BME280;36875;49.468;11.200;2022-08-03T08:52:40;98034.97;;;21.82;55.55
50057;BME280;36875;49.468;11.200;2022-08-03T08:55:08;98037.41;;;21.84;55.25
50057;BME280;36875;49.468;11.200;2022-08-03T08:57:37;98031.44;;;21.82;55.45
50057;BME280;36875;49.468;11.200;2022-08-03T09:00:05;98038.19;;;21.84;55.52
50057;BME280;36875;49.468;11.200;2022-08-03T09:02:33;98031.25;;;21.87;55.67
50057;BME280;36875;49.468;11.200;2022-08-03T09:04:59;98027.41;;;21.88;55.71
50057;BME280;36875;49.468;11.200;2022-08-03T09:07:26;98014.34;;;21.85;55.70
50057;BME280;36875;49.468;11.200;2022-08-03T09:09:54;98009.53;;;21.82;55.51
50057;BME280;36875;49.468;11.200;2022-08-03T09:12:20;98010.97;;;21.88;55.46
50057;BME280;36875;49.468;11.200;2022-08-03T09:14:45;98017.72;;;21.90;55.38
50057;BME280;36875;49.468;11.200;2022-08-03T09:17:11;97989.19;;;21.74;55.79
50057;BME280;36875;49.468;11.200;2022-08-03T09:19:37;98013.56;;;21.93;55.54
50057;BME280;36875;49.468;11.200;2022-08-03T09:22:08;98015.47;;;21.92;55.31
50057;BME280;36875;49.468;11.200;2022-08-03T09:24:34;98009.66;;;21.94;55.72
50057;BME280;36875;49.468;11.200;2022-08-03T09:27:04;98014.84;;;21.95;55.24
50057;BME280;36875;49.468;11.200;2022-08-03T09:29:31;98008.06;;;21.93;55.44
50057;BME280;36875;49.468;11.200;2022-08-03T09:32:00;98019.19;;;21.97;55.49
50057;BME280;36875;49.468;11.200;2022-08-03T09:34:26;98016.13;;;21.98;55.63
50057;BME280;36875;49.468;11.200;2022-08-03T09:36:53;98013.38;;;21.98;55.67
50057;BME280;36875;49.468;11.200;2022-08-03T09:39:20;98004.34;;;21.98;55.33
50057;BME280;36875;49.468;11.200;2022-08-03T09:41:48;98017.75;;;21.99;55.31
50057;BME280;36875;49.468;11.200;2022-08-03T09:44:34;98008.41;;;22.00;55.44
50057;BME280;36875;49.468;11.200;2022-08-03T09:47:01;98010.00;;;22.01;55.38
50057;BME280;36875;49.468;11.200;2022-08-03T09:49:27;98011.31;;;22.04;55.18
50057;BME280;36875;49.468;11.200;2022-08-03T09:51:53;98002.25;;;22.03;55.20
50057;BME280;36875;49.468;11.200;2022-08-03T09:54:26;98003.88;;;22.04;55.56
50057;BME280;36875;49.468;11.200;2022-08-03T09:56:52;97992.75;;;22.01;55.37
50057;BME280;36875;49.468;11.200;2022-08-03T09:59:23;98003.22;;;22.07;55.22
50057;BME280;36875;49.468;11.200;2022-08-03T10:01:51;98014.69;;;22.09;55.21
50057;BME280;36875;49.468;11.200;2022-08-03T10:04:17;98004.03;;;22.08;55.22
50057;BME280;36875;49.468;11.200;2022-08-03T10:06:43;98008.06;;;22.10;55.18
50057;BME280;36875;49.468;11.200;2022-08-03T10:09:11;98004.84;;;22.08;55.02
50057;BME280;36875;49.468;11.200;2022-08-03T10:11:39;98005.81;;;22.12;55.02
50057;BME280;36875;49.468;11.200;2022-08-03T10:14:06;98003.06;;;22.12;55.37
50057;BME280;36875;49.468;11.200;2022-08-03T10:16:34;97992.91;;;22.04;55.04
50057;BME280;36875;49.468;11.200;2022-08-03T10:19:02;97994.84;;;22.12;55.10
50057;BME280;36875;49.468;11.200;2022-08-03T10:21:32;97991.78;;;22.14;54.89
50057;BME280;36875;49.468;11.200;2022-08-03T10:23:58;97990.97;;;22.13;54.93
50057;BME280;36875;49.468;11.200;2022-08-03T10:26:28;97982.44;;;22.15;54.86
50057;BME280;36875;49.468;11.200;2022-08-03T10:28:56;97987.09;;;22.14;54.71
50057;BME280;36875;49.468;11.200;2022-08-03T10:31:24;97974.22;;;22.15;54.56
50057;BME280;36875;49.468;11.200;2022-08-03T10:33:51;97979.38;;;22.17;54.91
50057;BME280;36875;49.468;11.200;2022-08-03T10:36:23;97965.00;;;22.11;54.71
50057;BME280;36875;49.468;11.200;2022-08-03T10:38:50;97979.38;;;22.17;54.67
50057;BME280;36875;49.468;11.200;2022-08-03T10:41:23;97972.44;;;22.19;54.66
50057;BME280;36875;49.468;11.200;2022-08-03T10:43:57;97970.81;;;22.18;54.60
50057;BME280;36875;49.468;11.200;2022-08-03T10:46:25;97966.94;;;22.19;54.53
50057;BME280;36875;49.468;11.200;2022-08-03T10:48:51;97967.75;;;22.20;54.67
50057;BME280;36875;49.468;11.200;2022-08-03T10:51:18;97965.31;;;22.18;54.82
50057;BME280;36875;49.468;11.200;2022-08-03T10:53:45;97974.84;;;22.21;54.58
50057;BME280;36875;49.468;11.200;2022-08-03T10:56:38;97961.31;;;22.16;54.62
50057;BME280;36875;49.468;11.200;2022-08-03T10:59:56;97961.63;;;22.23;53.85
50057;BME280;36875;49.468;11.200;2022-08-03T11:05:27;97955.00;;;22.24;53.82
50057;BME280;36875;49.468;11.200;2022-08-03T11:11:02;97959.38;;;22.25;53.51
50057;BME280;36875;49.468;11.200;2022-08-03T11:13:56;97944.53;;;22.17;52.81
50057;BME280;36875;49.468;11.200;2022-08-03T11:16:25;97948.41;;;22.25;52.76
50057;BME280;36875;49.468;11.200;2022-08-03T11:18:55;97938.41;;;22.20;52.06
50057;BME280;36875;49.468;11.200;2022-08-03T11:24:57;97939.09;;;22.26;51.05
50057;BME280;36875;49.468;11.200;2022-08-03T11:27:26;97935.34;;;22.30;50.07
50057;BME280;36875;49.468;11.200;2022-08-03T11:29:57;97931.00;;;22.29;49.94
50057;BME280;36875;49.468;11.200;2022-08-03T11:32:52;97923.28;;;22.31;49.64
50057;BME280;36875;49.468;11.200;2022-08-03T11:35:19;97910.19;;;22.20;49.80
50057;BME280;36875;49.468;11.200;2022-08-03T11:40:50;97914.22;;;22.31;50.29
50057;BME280;36875;49.468;11.200;2022-08-03T11:43:45;97926.81;;;22.32;50.09
50057;BME280;36875;49.468;11.200;2022-08-03T11:46:12;97920.53;;;22.31;50.51
50057;BME280;36875;49.468;11.200;2022-08-03T11:48:48;97929.88;;;22.30;50.60
50057;BME280;36875;49.468;11.200;2022-08-03T11:51:22;97922.44;;;22.31;50.57
50057;BME280;36875;49.468;11.200;2022-08-03T11:53:51;97911.13;;;22.24;50.82
50057;BME280;36875;49.468;11.200;2022-08-03T11:56:17;97916.97;;;22.31;50.88
50057;BME280;36875;49.468;11.200;2022-08-03T11:58:47;97916.16;;;22.30;51.02
50057;BME280;36875;49.468;11.200;2022-08-03T12:01:13;97907.63;;;22.32;51.08
50057;BME280;36875;49.468;11.200;2022-08-03T12:03:41;97909.56;;;22.31;51.00
50057;BME280;36875;49.468;11.200;2022-08-03T12:06:08;97906.47;;;22.33;51.12
50057;BME280;36875;49.468;11.200;2022-08-03T12:08:34;97903.72;;;22.33;51.13
50057;BME280;36875;49.468;11.200;2022-08-03T12:11:01;97919.84;;;22.35;51.23
50057;BME280;36875;49.468;11.200;2022-08-03T12:13:38;97902.28;;;22.36;51.22
50057;BME280;36875;49.468;11.200;2022-08-03T12:16:05;97901.97;;;22.37;51.20
50057;BME280;36875;49.468;11.200;2022-08-03T12:18:31;97905.19;;;22.39;51.28
50057;BME280;36875;49.468;11.200;2022-08-03T12:21:03;97902.91;;;22.41;51.45
50057;BME280;36875;49.468;11.200;2022-08-03T12:23:29;97899.03;;;22.42;51.53
50057;BME280;36875;49.468;11.200;2022-08-03T12:26:00;97902.91;;;22.41;51.31
50057;BME280;36875;49.468;11.200;2022-08-03T12:28:26;97899.38;;;22.41;51.44
50057;BME280;36875;49.468;11.200;2022-08-03T12:30:52;97887.78;;;22.35;51.49
50057;BME280;36875;49.468;11.200;2022-08-03T12:33:23;97900.19;;;22.41;51.73
50057;BME280;36875;49.468;11.200;2022-08-03T12:36:00;97891.94;;;22.41;51.83
50057;BME280;36875;49.468;11.200;2022-08-03T12:38:28;97891.16;;;22.41;51.79
50057;BME280;36875;49.468;11.200;2022-08-03T12:41:04;97885.66;;;22.41;51.81
50057;BME280;36875;49.468;11.200;2022-08-03T12:43:30;97882.09;;;22.40;51.56
50057;BME280;36875;49.468;11.200;2022-08-03T12:46:12;97887.59;;;22.40;51.85
50057;BME280;36875;49.468;11.200;2022-08-03T12:49:01;97876.16;;;22.38;51.69
50057;BME280;36875;49.468;11.200;2022-08-03T12:51:28;97875.50;;;22.41;51.92
50057;BME280;36875;49.468;11.200;2022-08-03T12:53:55;97860.22;;;22.31;51.83
50057;BME280;36875;49.468;11.200;2022-08-03T12:56:21;97865.66;;;22.40;51.78
50057;BME280;36875;49.468;11.200;2022-08-03T12:58:47;97871.28;;;22.44;51.25
50057;BME280;36875;49.468;11.200;2022-08-03T13:01:14;97863.06;;;22.44;50.99
50057;BME280;36875;49.468;11.200;2022-08-03T13:03:41;97870.16;;;22.45;50.19
50057;BME280;36875;49.468;11.200;2022-08-03T13:06:11;97864.22;;;22.43;49.43
50057;BME280;36875;49.468;11.200;2022-08-03T13:08:38;97861.63;;;22.46;49.46